createdAt,value
2022-11-19T00:00:49.613Z,18.42
2022-11-19T00:03:16.097Z,18.41
2022-11-19T00:05:42.454Z,18.36
2022-11-19T00:08:08.781Z,18.33
2022-11-19T00:10:35.188Z,18.32
2022-11-19T00:13:01.590Z,18.31
2022-11-19T00:15:28.239Z,18.26
2022-11-19T00:17:54.516Z,18.28
2022-11-19T00:20:20.761Z,18.26
2022-11-19T00:22:47.151Z,18.20
2022-11-19T00:25:13.555Z,18.20
2022-11-19T00:27:39.897Z,18.20
2022-11-19T00:30:19.917Z,18.17
2022-11-19T00:32:52.509Z,18.16
2022-11-19T00:35:19.043Z,18.11
2022-11-19T00:37:45.495Z,18.12
2022-11-19T00:40:11.865Z,18.11
2022-11-19T00:42:38.187Z,18.05
2022-11-19T00:45:04.668Z,18.07
2022-11-19T00:47:31.286Z,18.03
2022-11-19T00:49:57.911Z,18.00
2022-11-19T00:52:24.192Z,17.99
2022-11-19T00:54:50.684Z,17.98
2022-11-19T00:57:17.181Z,17.98
2022-11-19T00:59:43.563Z,17.94
2022-11-19T01:02:09.881Z,17.93
2022-11-19T01:04:36.207Z,17.91
2022-11-19T01:07:02.628Z,17.90
2022-11-19T01:09:29.033Z,17.89
2022-11-19T01:11:55.390Z,17.83
2022-11-19T01:14:21.706Z,17.82
2022-11-19T01:16:48.077Z,17.77
2022-11-19T01:19:14.455Z,17.80
2022-11-19T01:21:40.725Z,17.75
2022-11-19T01:24:07.115Z,17.71
2022-11-19T01:26:33.372Z,17.72
2022-11-19T01:28:59.892Z,17.72
2022-11-19T01:31:26.708Z,17.67
2022-11-19T01:33:53.268Z,17.62
2022-11-19T01:36:19.590Z,17.61
2022-11-19T01:38:45.976Z,17.64
2022-11-19T01:41:12.384Z,17.60
2022-11-19T01:43:38.705Z,17.57
2022-11-19T01:46:05.018Z,17.58
2022-11-19T01:48:31.433Z,17.55
2022-11-19T01:50:57.809Z,17.52
2022-11-19T01:53:24.315Z,17.49
2022-11-19T01:55:50.575Z,17.49
2022-11-19T01:58:17.006Z,17.47
2022-11-19T02:00:43.325Z,17.43
2022-11-19T02:03:10.104Z,17.38
2022-11-19T02:05:37.096Z,17.43
2022-11-19T02:08:03.821Z,17.37
2022-11-19T02:10:30.695Z,17.39
2022-11-19T02:12:57.023Z,17.37
2022-11-19T02:15:33.196Z,17.35
2022-11-19T02:17:59.692Z,17.31
2022-11-19T02:20:26.552Z,17.30
2022-11-19T02:22:53.297Z,17.27
2022-11-19T02:25:19.921Z,17.24
2022-11-19T02:27:46.522Z,17.25
2022-11-19T02:30:12.895Z,17.22
2022-11-19T02:32:39.179Z,17.21
2022-11-19T02:35:05.507Z,17.19
2022-11-19T02:37:31.797Z,17.16
2022-11-19T02:39:58.085Z,17.14
2022-11-19T02:42:24.398Z,17.13
2022-11-19T02:44:50.713Z,17.12
2022-11-19T02:47:16.998Z,17.11
2022-11-19T02:49:43.636Z,17.09
2022-11-19T02:52:09.885Z,17.06
2022-11-19T02:54:36.171Z,17.07
2022-11-19T02:57:02.548Z,17.05
2022-11-19T02:59:28.912Z,17.00
2022-11-19T03:01:55.205Z,17.05
2022-11-19T03:04:21.463Z,17.01
2022-11-19T03:06:47.883Z,17.00
2022-11-19T03:09:14.227Z,16.99
2022-11-19T03:11:40.535Z,16.99
2022-11-19T03:14:06.859Z,16.95
2022-11-19T03:16:33.172Z,16.94
2022-11-19T03:18:59.802Z,16.93
2022-11-19T03:21:26.127Z,16.89
2022-11-19T03:23:52.437Z,16.90
2022-11-19T03:26:18.729Z,16.86
2022-11-19T03:28:45.078Z,16.87
2022-11-19T03:31:11.511Z,16.83
2022-11-19T03:33:37.799Z,16.82
2022-11-19T03:36:04.079Z,16.83
2022-11-19T03:38:30.467Z,16.80
2022-11-19T03:40:56.726Z,16.81
2022-11-19T03:43:23.101Z,16.76
2022-11-19T03:45:49.419Z,16.75
2022-11-19T03:48:15.888Z,16.74
2022-11-19T03:50:42.269Z,16.73
2022-11-19T03:53:08.677Z,16.72
2022-11-19T03:55:34.984Z,16.69
2022-11-19T03:58:01.238Z,16.68
2022-11-19T04:00:27.521Z,16.66
2022-11-19T04:02:53.929Z,16.65
2022-11-19T04:05:20.333Z,16.65
2022-11-19T04:07:46.846Z,16.66
2022-11-19T04:10:13.157Z,16.64
2022-11-19T04:12:39.731Z,16.61
2022-11-19T04:15:05.988Z,16.59
2022-11-19T04:17:32.279Z,16.59
2022-11-19T04:19:58.527Z,16.59
2022-11-19T04:22:24.808Z,16.56
2022-11-19T04:24:51.165Z,16.55
2022-11-19T04:27:17.480Z,16.53
2022-11-19T04:29:43.795Z,16.51
2022-11-19T04:32:10.089Z,16.50
2022-11-19T04:34:36.401Z,16.50
2022-11-19T04:37:02.665Z,16.47
2022-11-19T04:39:28.954Z,16.45
2022-11-19T04:41:55.246Z,16.47
2022-11-19T04:44:21.625Z,16.45
2022-11-19T04:46:48.025Z,16.42
2022-11-19T04:49:14.355Z,16.41
2022-11-19T04:51:40.653Z,16.39
2022-11-19T04:54:06.985Z,16.38
2022-11-19T04:56:33.329Z,16.39
2022-11-19T04:58:59.673Z,16.37
2022-11-19T05:01:25.967Z,16.33
2022-11-19T05:03:52.364Z,16.32
2022-11-19T05:06:18.654Z,16.32
2022-11-19T05:08:45.046Z,16.33
2022-11-19T05:11:11.485Z,16.32
2022-11-19T05:13:37.861Z,16.30
2022-11-19T05:16:04.354Z,16.28
2022-11-19T05:18:30.643Z,16.26
2022-11-19T05:20:57.241Z,16.25
2022-11-19T05:23:23.606Z,16.25
2022-11-19T05:25:49.975Z,16.22
2022-11-19T05:28:16.257Z,16.21
2022-11-19T05:30:42.534Z,16.21
2022-11-19T05:33:08.825Z,16.19
2022-11-19T05:35:35.216Z,16.17
2022-11-19T05:38:01.620Z,16.16
2022-11-19T05:40:28.005Z,16.17
2022-11-19T05:42:54.348Z,16.15
2022-11-19T05:45:20.701Z,16.14
2022-11-19T05:47:48.829Z,16.13
2022-11-19T05:50:15.248Z,16.10
2022-11-19T05:52:41.558Z,16.12
2022-11-19T05:55:07.883Z,16.08
2022-11-19T05:57:34.214Z,16.09
2022-11-19T06:00:00.541Z,16.08
2022-11-19T06:02:26.982Z,16.06
2022-11-19T06:04:53.325Z,16.08
2022-11-19T06:07:19.855Z,16.05
2022-11-19T06:09:46.201Z,16.03
2022-11-19T06:12:12.568Z,16.03
2022-11-19T06:14:38.886Z,16.02
2022-11-19T06:17:05.176Z,15.99
2022-11-19T06:19:31.484Z,15.99
2022-11-19T06:21:57.796Z,15.98
2022-11-19T06:24:24.082Z,15.95
2022-11-19T06:26:50.348Z,15.93
2022-11-19T06:29:16.925Z,15.94
2022-11-19T06:31:43.570Z,15.92
2022-11-19T06:34:09.977Z,15.91
2022-11-19T06:36:41.198Z,15.90
2022-11-19T06:39:10.088Z,15.90
2022-11-19T06:41:36.673Z,15.89
2022-11-19T06:44:02.945Z,15.88
2022-11-19T06:46:29.377Z,15.85
2022-11-19T06:48:55.651Z,15.86
2022-11-19T06:51:22.091Z,15.85
2022-11-19T06:53:48.534Z,15.84
2022-11-19T06:56:14.892Z,15.82
2022-11-19T06:58:41.534Z,15.82
2022-11-19T07:01:07.990Z,15.79
2022-11-19T07:03:34.419Z,15.77
2022-11-19T07:06:00.801Z,15.78
2022-11-19T07:08:27.106Z,15.74
2022-11-19T07:10:53.437Z,15.74
2022-11-19T07:13:20.051Z,15.74
2022-11-19T07:15:46.355Z,15.73
2022-11-19T07:18:12.652Z,15.71
2022-11-19T07:20:39.165Z,15.69
2022-11-19T07:23:05.614Z,15.67
2022-11-19T07:25:32.039Z,15.67
2022-11-19T07:27:58.443Z,15.65
2022-11-19T07:30:24.715Z,15.65
2022-11-19T07:32:50.981Z,15.63
2022-11-19T07:35:17.290Z,15.63
2022-11-19T07:37:43.606Z,15.63
2022-11-19T07:40:10.006Z,15.62
2022-11-19T07:42:36.356Z,15.63
2022-11-19T07:45:02.752Z,15.61
2022-11-19T07:47:29.117Z,15.59
2022-11-19T07:49:55.412Z,15.55
2022-11-19T07:52:21.683Z,15.57
2022-11-19T07:54:47.988Z,15.56
2022-11-19T07:57:14.307Z,15.56
2022-11-19T07:59:40.684Z,15.50
2022-11-19T08:02:07.103Z,15.53
2022-11-19T08:04:33.522Z,15.51
2022-11-19T08:06:59.984Z,15.52
2022-11-19T08:09:26.531Z,15.46
2022-11-19T08:11:52.855Z,15.46
2022-11-19T08:14:19.219Z,15.50
2022-11-19T08:21:56.432Z,15.47
2022-11-19T08:24:23.254Z,15.42
2022-11-19T08:26:50.247Z,15.41
2022-11-19T08:29:16.944Z,15.43
2022-11-19T08:31:43.394Z,15.44
2022-11-19T08:34:09.627Z,15.40
2022-11-19T08:36:35.893Z,15.39
2022-11-19T08:39:02.187Z,15.37
2022-11-19T08:41:28.687Z,15.36
2022-11-19T08:43:55.147Z,15.37
2022-11-19T08:46:21.449Z,15.33
2022-11-19T08:48:47.826Z,15.36
2022-11-19T08:51:14.117Z,15.32
2022-11-19T08:53:40.430Z,15.30
2022-11-19T08:56:06.706Z,15.34
2022-11-19T08:58:33.056Z,15.24
2022-11-19T09:06:14.471Z,15.13
2022-11-19T09:08:41.051Z,15.13
2022-11-19T09:11:07.629Z,15.12
2022-11-19T09:13:33.969Z,15.07
2022-11-19T09:16:00.768Z,15.08
2022-11-19T09:18:27.507Z,15.04
2022-11-19T09:20:54.061Z,15.08
2022-11-19T09:23:20.508Z,15.12
2022-11-19T09:25:46.896Z,15.13
2022-11-19T09:28:13.333Z,15.12
2022-11-19T09:30:39.781Z,15.08
2022-11-19T09:33:06.198Z,15.12
2022-11-19T09:35:32.697Z,15.12
2022-11-19T09:37:59.192Z,15.21
2022-11-19T09:40:25.557Z,15.29
2022-11-19T09:42:52.005Z,15.41
2022-11-19T09:45:18.355Z,15.51
2022-11-19T09:47:44.704Z,15.62
2022-11-19T09:50:11.508Z,15.73
2022-11-19T09:52:37.987Z,15.77
2022-11-19T09:55:04.305Z,15.80
2022-11-19T09:57:30.720Z,15.83
2022-11-19T09:59:57.227Z,15.88
2022-11-19T10:02:23.741Z,15.92
2022-11-19T10:04:50.164Z,16.02
2022-11-19T10:07:16.453Z,16.06
2022-11-19T10:09:43.012Z,16.12
2022-11-19T10:12:09.364Z,16.16
2022-11-19T10:14:35.694Z,16.17
2022-11-19T10:17:01.999Z,16.23
2022-11-19T10:19:28.538Z,16.26
2022-11-19T10:21:54.941Z,16.27
2022-11-19T10:24:21.739Z,16.33
2022-11-19T10:26:48.749Z,16.44
2022-11-19T10:34:32.510Z,16.59
2022-11-19T10:36:58.833Z,16.57
2022-11-19T10:39:25.248Z,16.58
2022-11-19T10:41:51.659Z,16.57
2022-11-19T10:44:18.183Z,16.57
2022-11-19T10:46:44.814Z,16.61
2022-11-19T10:49:11.185Z,16.61
2022-11-19T10:51:37.451Z,16.61
2022-11-19T10:54:03.736Z,16.65
2022-11-19T10:56:30.001Z,16.67
2022-11-19T10:58:56.469Z,16.66
2022-11-19T11:01:23.023Z,16.70
2022-11-19T11:03:49.283Z,16.72
2022-11-19T11:06:15.749Z,16.76
2022-11-19T11:08:42.055Z,16.78
2022-11-19T11:13:43.523Z,16.80
2022-11-19T11:16:09.900Z,16.83
2022-11-19T11:18:36.428Z,16.83
2022-11-19T11:21:03.031Z,16.81
2022-11-19T11:23:29.353Z,16.81
2022-11-19T11:25:55.634Z,16.80
2022-11-19T11:28:22.513Z,16.81
2022-11-19T11:30:49.241Z,16.82
2022-11-19T11:33:15.741Z,16.81
2022-11-19T11:35:42.039Z,16.83
2022-11-19T11:38:08.509Z,16.82
2022-11-19T11:40:34.871Z,16.84
2022-11-19T11:43:01.331Z,16.84
2022-11-19T11:45:28.014Z,16.85
2022-11-19T11:47:54.473Z,16.86
2022-11-19T11:50:20.813Z,16.85
2022-11-19T11:52:47.085Z,16.83
2022-11-19T11:55:13.545Z,16.83
2022-11-19T11:57:40.031Z,16.82
2022-11-19T12:00:06.685Z,16.81
2022-11-19T12:02:33.115Z,16.81
2022-11-19T12:04:59.529Z,16.81
2022-11-19T12:07:25.800Z,16.83
2022-11-19T12:09:52.168Z,16.79
2022-11-19T12:12:18.676Z,16.79
2022-11-19T12:14:44.952Z,16.77
2022-11-19T12:17:11.403Z,16.78
2022-11-19T12:19:37.948Z,16.81
2022-11-19T12:22:04.320Z,16.81
2022-11-19T12:24:30.888Z,16.85
2022-11-19T12:26:57.213Z,16.88
2022-11-19T12:29:23.633Z,16.91
2022-11-19T12:31:50.177Z,16.88
2022-11-19T12:34:16.481Z,16.89
2022-11-19T12:36:42.877Z,16.94
2022-11-19T12:39:09.126Z,16.97
2022-11-19T12:41:35.456Z,17.07
2022-11-19T12:44:01.922Z,17.08
2022-11-19T12:46:28.217Z,17.13
2022-11-19T12:48:54.590Z,17.19
2022-11-19T12:51:20.950Z,17.25
2022-11-19T12:53:47.293Z,17.33
2022-11-19T12:56:13.533Z,17.42
2022-11-19T12:58:39.833Z,17.46
2022-11-19T13:01:06.288Z,17.49
2022-11-19T13:03:32.726Z,17.58
2022-11-19T13:05:59.053Z,17.66
2022-11-19T13:08:25.488Z,17.71
2022-11-19T13:10:51.770Z,17.76
2022-11-19T13:13:18.231Z,17.85
2022-11-19T13:15:44.547Z,17.94
2022-11-19T13:18:10.863Z,18.02
2022-11-19T13:20:37.441Z,18.09
2022-11-19T13:23:03.838Z,18.17
2022-11-19T13:25:30.257Z,18.23
2022-11-19T13:27:56.638Z,18.30
2022-11-19T13:30:22.899Z,18.39
2022-11-19T13:32:49.185Z,18.47
2022-11-19T13:35:15.614Z,18.53
2022-11-19T13:37:41.903Z,18.57
2022-11-19T13:40:08.150Z,18.63
2022-11-19T13:42:34.429Z,18.66
2022-11-19T13:45:01.047Z,18.64
2022-11-19T13:47:27.481Z,18.65
2022-11-19T13:49:54.002Z,18.70
2022-11-19T13:52:20.282Z,18.72
2022-11-19T13:54:46.713Z,18.75
2022-11-19T13:57:13.114Z,18.73
2022-11-19T13:59:39.800Z,18.74
2022-11-19T14:02:06.100Z,18.75
2022-11-19T14:04:32.679Z,18.76
2022-11-19T14:06:59.165Z,18.79
2022-11-19T14:09:25.460Z,18.77
2022-11-19T14:11:51.859Z,18.81
2022-11-19T14:14:18.137Z,18.78
2022-11-19T14:16:44.598Z,18.78
2022-11-19T14:19:11.012Z,18.73
2022-11-19T14:21:37.354Z,18.72
2022-11-19T14:24:03.655Z,18.74
2022-11-19T14:26:29.970Z,18.76
2022-11-19T14:28:56.464Z,18.74
2022-11-19T14:31:22.742Z,18.66
2022-11-19T14:33:49.072Z,18.66
2022-11-19T14:36:15.414Z,18.67
2022-11-19T14:38:41.751Z,18.66
2022-11-19T14:41:08.049Z,18.63
2022-11-19T14:43:34.385Z,18.62
2022-11-19T14:46:00.757Z,18.60
2022-11-19T14:48:27.259Z,18.58
2022-11-19T14:50:53.804Z,18.53
2022-11-19T14:53:20.331Z,18.51
2022-11-19T14:55:46.668Z,18.53
2022-11-19T14:58:12.977Z,18.51
2022-11-19T15:00:39.260Z,18.50
2022-11-19T15:03:06.096Z,18.49
2022-11-19T15:05:32.521Z,18.47
2022-11-19T15:07:58.941Z,18.47
2022-11-19T15:10:25.663Z,18.45
2022-11-19T15:12:51.932Z,18.43
2022-11-19T15:15:18.522Z,18.38
2022-11-19T15:17:44.969Z,18.36
2022-11-19T15:25:25.733Z,18.36
2022-11-19T15:27:52.026Z,18.37
2022-11-19T15:30:18.813Z,18.31
2022-11-19T15:32:45.137Z,18.31
2022-11-19T15:35:11.968Z,18.30
2022-11-19T15:37:38.623Z,18.29
2022-11-19T15:40:05.149Z,18.28
2022-11-19T15:42:31.512Z,18.26
2022-11-19T15:44:58.112Z,18.25
2022-11-19T15:47:24.445Z,18.24
2022-11-19T15:49:50.767Z,18.23
2022-11-19T15:52:18.259Z,18.18
2022-11-19T15:54:44.828Z,18.16
2022-11-19T15:59:50.738Z,18.13
2022-11-19T16:02:17.005Z,18.12
2022-11-19T16:04:43.253Z,18.08
2022-11-19T16:07:09.583Z,17.96
2022-11-19T16:09:35.908Z,17.84
2022-11-19T16:12:02.191Z,17.76
2022-11-19T16:14:28.752Z,17.67
2022-11-19T16:16:55.041Z,17.59
2022-11-19T16:19:21.636Z,17.53
2022-11-19T16:21:48.379Z,17.48
2022-11-19T16:24:14.797Z,17.44
2022-11-19T16:26:41.093Z,17.41
2022-11-19T16:29:07.330Z,17.38
2022-11-19T16:31:33.620Z,17.33
2022-11-19T16:34:00.190Z,17.34
2022-11-19T16:36:26.638Z,17.35
2022-11-19T16:38:53.178Z,17.34
2022-11-19T16:41:19.507Z,17.42
2022-11-19T16:43:45.828Z,17.43
2022-11-19T16:46:12.095Z,17.46
2022-11-19T16:48:38.557Z,17.43
2022-11-19T16:51:04.958Z,17.45
2022-11-19T16:53:31.737Z,17.49
2022-11-19T16:55:58.085Z,17.50
2022-11-19T16:58:24.387Z,17.49
2022-11-19T17:00:50.789Z,17.56
2022-11-19T17:05:52.797Z,17.63
2022-11-19T17:08:19.054Z,17.58
2022-11-19T17:10:45.410Z,17.65
2022-11-19T17:18:29.793Z,17.74
2022-11-19T17:20:56.082Z,17.80
2022-11-19T17:23:22.632Z,17.77
2022-11-19T17:28:18.159Z,17.83
2022-11-19T17:35:57.803Z,17.89
2022-11-19T17:41:04.886Z,17.91
2022-11-19T17:48:49.845Z,18.00
2022-11-19T17:51:16.303Z,17.97
2022-11-19T17:53:42.948Z,18.04
2022-11-19T17:56:09.392Z,18.06
2022-11-19T17:58:35.858Z,18.03
2022-11-19T18:07:16.518Z,18.15
2022-11-19T18:09:44.586Z,18.17
2022-11-19T18:15:43.669Z,18.26
2022-11-19T18:32:41.851Z,18.42
2022-11-19T18:59:04.709Z,18.75
2022-11-19T19:09:24.223Z,18.82
2022-11-19T19:33:13.897Z,19.15
2022-11-19T20:12:55.921Z,19.45
2022-11-19T22:07:35.989Z,20.00
2022-11-19T22:18:00.005Z,19.97
2022-11-19T22:36:23.036Z,20.13
2022-11-19T22:38:49.466Z,20.17
2022-11-19T22:41:15.766Z,20.18
2022-11-19T22:54:20.048Z,20.34
2022-11-19T23:07:13.069Z,20.53
2022-11-19T23:17:41.111Z,20.61
2022-11-19T23:20:07.586Z,20.63
2022-11-19T23:33:01.077Z,20.70
2022-11-19T23:35:27.366Z,20.74
2022-11-19T23:48:32.065Z,20.77
2022-11-19T23:50:58.362Z,20.76
